sensor_id;sensor_type;location;lat;lon;timestamp;P1;durP1;ratioP1;P2;durP2;ratioP2
3967;SDS011;9221;42.646;23.380;2022-10-28T00:01:22;7.87;;;2.50;;
3967;SDS011;9221;42.646;23.380;2022-10-28T00:03:52;8.23;;;2.10;;
3967;SDS011;9221;42.646;23.380;2022-10-28T00:06:20;5.37;;;2.17;;
3967;SDS011;9221;42.646;23.380;2022-10-28T00:08:57;6.97;;;2.33;;
3967;SDS011;9221;42.646;23.380;2022-10-28T00:11:25;6.50;;;2.43;;
3967;SDS011;9221;42.646;23.380;2022-10-28T00:13:53;8.80;;;2.10;;
3967;SDS011;9221;42.646;23.380;2022-10-28T00:16:25;7.80;;;2.17;;
3967;SDS011;9221;42.646;23.380;2022-10-28T00:18:52;7.87;;;1.93;;
3967;SDS011;9221;42.646;23.380;2022-10-28T00:21:20;4.53;;;1.83;;
3967;SDS011;9221;42.646;23.380;2022-10-28T00:23:47;2.83;;;1.57;;
3967;SDS011;9221;42.646;23.380;2022-10-28T00:26:14;3.30;;;1.63;;
3967;SDS011;9221;42.646;23.380;2022-10-28T00:28:45;4.07;;;1.87;;
3967;SDS011;9221;42.646;23.380;2022-10-28T00:31:32;6.77;;;1.90;;
3967;SDS011;9221;42.646;23.380;2022-10-28T00:33:58;3.33;;;1.47;;
3967;SDS011;9221;42.646;23.380;2022-10-28T00:36:26;4.13;;;1.77;;
3967;SDS011;9221;42.646;23.380;2022-10-28T00:38:56;8.40;;;1.70;;
3967;SDS011;9221;42.646;23.380;2022-10-28T00:41:25;6.87;;;1.93;;
3967;SDS011;9221;42.646;23.380;2022-10-28T00:43:59;3.87;;;1.67;;
3967;SDS011;9221;42.646;23.380;2022-10-28T00:49:09;3.70;;;1.47;;
3967;SDS011;9221;42.646;23.380;2022-10-28T00:51:39;6.43;;;2.37;;
3967;SDS011;9221;42.646;23.380;2022-10-28T00:54:06;7.40;;;1.77;;
3967;SDS011;9221;42.646;23.380;2022-10-28T00:56:33;5.90;;;1.60;;
3967;SDS011;9221;42.646;23.380;2022-10-28T00:59:03;3.67;;;1.93;;
3967;SDS011;9221;42.646;23.380;2022-10-28T01:01:35;9.03;;;1.97;;
3967;SDS011;9221;42.646;23.380;2022-10-28T01:04:01;6.40;;;2.20;;
3967;SDS011;9221;42.646;23.380;2022-10-28T01:06:27;5.63;;;2.07;;
3967;SDS011;9221;42.646;23.380;2022-10-28T01:08:53;10.97;;;2.23;;
3967;SDS011;9221;42.646;23.380;2022-10-28T01:14:14;5.27;;;1.67;;
3967;SDS011;9221;42.646;23.380;2022-10-28T01:16:55;4.30;;;1.40;;
3967;SDS011;9221;42.646;23.380;2022-10-28T01:25:27;4.20;;;1.70;;
3967;SDS011;9221;42.646;23.380;2022-10-28T01:33:49;3.17;;;1.53;;
3967;SDS011;9221;42.646;23.380;2022-10-28T01:42:06;3.33;;;1.77;;
3967;SDS011;9221;42.646;23.380;2022-10-28T01:52:24;2.93;;;1.50;;
3967;SDS011;9221;42.646;23.380;2022-10-28T01:54:57;2.90;;;1.77;;
3967;SDS011;9221;42.646;23.380;2022-10-28T01:57:27;5.60;;;2.33;;
3967;SDS011;9221;42.646;23.380;2022-10-28T01:59:55;6.80;;;2.20;;
3967;SDS011;9221;42.646;23.380;2022-10-28T02:02:21;3.20;;;1.70;;
3967;SDS011;9221;42.646;23.380;2022-10-28T02:04:47;4.83;;;1.50;;
3967;SDS011;9221;42.646;23.380;2022-10-28T02:07:13;8.80;;;2.60;;
3967;SDS011;9221;42.646;23.380;2022-10-28T02:10:02;4.37;;;2.07;;
3967;SDS011;9221;42.646;23.380;2022-10-28T02:12:34;8.97;;;2.00;;
3967;SDS011;9221;42.646;23.380;2022-10-28T02:20:30;3.70;;;2.03;;
3967;SDS011;9221;42.646;23.380;2022-10-28T02:28:58;6.23;;;2.27;;
3967;SDS011;9221;42.646;23.380;2022-10-28T02:31:32;6.80;;;1.93;;
3967;SDS011;9221;42.646;23.380;2022-10-28T02:34:05;6.60;;;2.33;;
3967;SDS011;9221;42.646;23.380;2022-10-28T02:36:36;5.53;;;2.40;;
3967;SDS011;9221;42.646;23.380;2022-10-28T02:39:06;4.70;;;1.93;;
3967;SDS011;9221;42.646;23.380;2022-10-28T02:41:34;3.23;;;1.47;;
3967;SDS011;9221;42.646;23.380;2022-10-28T02:44:16;6.77;;;2.60;;
3967;SDS011;9221;42.646;23.380;2022-10-28T02:46:45;6.53;;;2.20;;
3967;SDS011;9221;42.646;23.380;2022-10-28T02:49:14;4.67;;;1.90;;
3967;SDS011;9221;42.646;23.380;2022-10-28T02:51:47;14.17;;;2.33;;
3967;SDS011;9221;42.646;23.380;2022-10-28T02:54:24;4.27;;;2.07;;
3967;SDS011;9221;42.646;23.380;2022-10-28T02:59:42;4.73;;;2.27;;
3967;SDS011;9221;42.646;23.380;2022-10-28T03:02:14;4.87;;;2.33;;
3967;SDS011;9221;42.646;23.380;2022-10-28T03:04:40;7.37;;;2.23;;
3967;SDS011;9221;42.646;23.380;2022-10-28T03:07:05;6.67;;;2.57;;
3967;SDS011;9221;42.646;23.380;2022-10-28T03:09:31;5.30;;;2.30;;
3967;SDS011;9221;42.646;23.380;2022-10-28T03:11:56;10.97;;;2.53;;
3967;SDS011;9221;42.646;23.380;2022-10-28T03:14:21;3.83;;;1.70;;
3967;SDS011;9221;42.646;23.380;2022-10-28T03:16:47;4.90;;;2.17;;
3967;SDS011;9221;42.646;23.380;2022-10-28T03:19:12;6.83;;;2.70;;
3967;SDS011;9221;42.646;23.380;2022-10-28T03:21:38;4.17;;;2.10;;
3967;SDS011;9221;42.646;23.380;2022-10-28T03:24:03;5.43;;;2.00;;
3967;SDS011;9221;42.646;23.380;2022-10-28T03:26:29;3.27;;;1.70;;
3967;SDS011;9221;42.646;23.380;2022-10-28T03:28:54;3.40;;;1.80;;
3967;SDS011;9221;42.646;23.380;2022-10-28T03:31:19;4.43;;;1.90;;
3967;SDS011;9221;42.646;23.380;2022-10-28T03:33:45;4.60;;;1.87;;
3967;SDS011;9221;42.646;23.380;2022-10-28T03:36:10;6.50;;;2.30;;
3967;SDS011;9221;42.646;23.380;2022-10-28T03:38:35;4.40;;;2.03;;
3967;SDS011;9221;42.646;23.380;2022-10-28T03:41:01;4.80;;;2.20;;
3967;SDS011;9221;42.646;23.380;2022-10-28T03:43:26;5.77;;;2.40;;
3967;SDS011;9221;42.646;23.380;2022-10-28T03:45:52;4.17;;;2.03;;
3967;SDS011;9221;42.646;23.380;2022-10-28T03:48:17;5.03;;;2.00;;
3967;SDS011;9221;42.646;23.380;2022-10-28T03:50:43;10.60;;;2.30;;
3967;SDS011;9221;42.646;23.380;2022-10-28T03:53:08;9.47;;;2.70;;
3967;SDS011;9221;42.646;23.380;2022-10-28T03:55:33;5.50;;;2.07;;
3967;SDS011;9221;42.646;23.380;2022-10-28T03:57:59;5.80;;;2.50;;
3967;SDS011;9221;42.646;23.380;2022-10-28T04:00:25;10.37;;;2.70;;
3967;SDS011;9221;42.646;23.380;2022-10-28T04:02:51;5.93;;;2.30;;
3967;SDS011;9221;42.646;23.380;2022-10-28T04:05:17;13.43;;;2.20;;
3967;SDS011;9221;42.646;23.380;2022-10-28T04:07:44;5.07;;;2.40;;
3967;SDS011;9221;42.646;23.380;2022-10-28T04:10:09;6.00;;;2.43;;
3967;SDS011;9221;42.646;23.380;2022-10-28T04:12:35;9.03;;;2.47;;
3967;SDS011;9221;42.646;23.380;2022-10-28T04:15:00;6.30;;;2.37;;
3967;SDS011;9221;42.646;23.380;2022-10-28T04:17:26;7.60;;;2.47;;
3967;SDS011;9221;42.646;23.380;2022-10-28T04:19:51;4.30;;;2.40;;
3967;SDS011;9221;42.646;23.380;2022-10-28T04:22:16;5.37;;;2.23;;
3967;SDS011;9221;42.646;23.380;2022-10-28T04:24:42;8.40;;;3.07;;
3967;SDS011;9221;42.646;23.380;2022-10-28T04:27:07;9.97;;;2.70;;
3967;SDS011;9221;42.646;23.380;2022-10-28T04:29:33;6.33;;;2.50;;
3967;SDS011;9221;42.646;23.380;2022-10-28T04:31:58;4.63;;;1.90;;
3967;SDS011;9221;42.646;23.380;2022-10-28T04:34:24;10.30;;;2.23;;
3967;SDS011;9221;42.646;23.380;2022-10-28T04:36:50;5.80;;;2.73;;
3967;SDS011;9221;42.646;23.380;2022-10-28T04:39:15;8.30;;;2.33;;
3967;SDS011;9221;42.646;23.380;2022-10-28T04:41:40;7.90;;;2.50;;
3967;SDS011;9221;42.646;23.380;2022-10-28T04:44:06;5.63;;;2.70;;
3967;SDS011;9221;42.646;23.380;2022-10-28T04:46:31;7.03;;;2.80;;
3967;SDS011;9221;42.646;23.380;2022-10-28T04:48:57;6.07;;;2.43;;
3967;SDS011;9221;42.646;23.380;2022-10-28T04:51:22;12.50;;;2.80;;
3967;SDS011;9221;42.646;23.380;2022-10-28T04:53:47;7.77;;;2.50;;
3967;SDS011;9221;42.646;23.380;2022-10-28T04:56:13;3.50;;;2.17;;
3967;SDS011;9221;42.646;23.380;2022-10-28T04:58:38;8.20;;;2.87;;
3967;SDS011;9221;42.646;23.380;2022-10-28T05:01:07;6.30;;;2.63;;
3967;SDS011;9221;42.646;23.380;2022-10-28T05:03:34;6.83;;;2.80;;
3967;SDS011;9221;42.646;23.380;2022-10-28T05:05:59;11.80;;;2.60;;
3967;SDS011;9221;42.646;23.380;2022-10-28T05:08:25;5.80;;;3.10;;
3967;SDS011;9221;42.646;23.380;2022-10-28T05:10:50;9.20;;;3.57;;
3967;SDS011;9221;42.646;23.380;2022-10-28T05:13:16;4.67;;;2.60;;
3967;SDS011;9221;42.646;23.380;2022-10-28T05:15:42;6.37;;;2.57;;
3967;SDS011;9221;42.646;23.380;2022-10-28T05:18:07;9.87;;;4.30;;
3967;SDS011;9221;42.646;23.380;2022-10-28T05:20:33;10.57;;;3.53;;
3967;SDS011;9221;42.646;23.380;2022-10-28T05:22:58;6.33;;;2.53;;
3967;SDS011;9221;42.646;23.380;2022-10-28T05:25:24;11.00;;;2.60;;
3967;SDS011;9221;42.646;23.380;2022-10-28T05:27:50;9.47;;;3.23;;
3967;SDS011;9221;42.646;23.380;2022-10-28T05:30:16;11.60;;;3.80;;
3967;SDS011;9221;42.646;23.380;2022-10-28T05:32:41;13.67;;;3.53;;
3967;SDS011;9221;42.646;23.380;2022-10-28T05:35:07;21.00;;;4.10;;
3967;SDS011;9221;42.646;23.380;2022-10-28T05:37:33;6.23;;;2.80;;
3967;SDS011;9221;42.646;23.380;2022-10-28T05:39:58;11.73;;;3.13;;
3967;SDS011;9221;42.646;23.380;2022-10-28T05:42:24;5.57;;;2.57;;
3967;SDS011;9221;42.646;23.380;2022-10-28T05:44:49;10.03;;;2.83;;
3967;SDS011;9221;42.646;23.380;2022-10-28T05:47:14;6.37;;;2.20;;
3967;SDS011;9221;42.646;23.380;2022-10-28T05:49:40;6.40;;;2.43;;
3967;SDS011;9221;42.646;23.380;2022-10-28T05:52:05;8.57;;;2.70;;
3967;SDS011;9221;42.646;23.380;2022-10-28T05:54:31;6.10;;;2.37;;
3967;SDS011;9221;42.646;23.380;2022-10-28T05:56:56;10.23;;;2.90;;
3967;SDS011;9221;42.646;23.380;2022-10-28T05:59:21;10.47;;;2.70;;
3967;SDS011;9221;42.646;23.380;2022-10-28T06:01:47;7.30;;;2.43;;
3967;SDS011;9221;42.646;23.380;2022-10-28T06:04:12;8.90;;;3.17;;
3967;SDS011;9221;42.646;23.380;2022-10-28T06:06:38;9.50;;;2.50;;
3967;SDS011;9221;42.646;23.380;2022-10-28T06:09:03;6.70;;;2.43;;
3967;SDS011;9221;42.646;23.380;2022-10-28T06:11:29;7.60;;;2.17;;
3967;SDS011;9221;42.646;23.380;2022-10-28T06:13:54;10.40;;;3.00;;
3967;SDS011;9221;42.646;23.380;2022-10-28T06:16:20;8.10;;;2.90;;
3967;SDS011;9221;42.646;23.380;2022-10-28T06:18:45;5.23;;;2.50;;
3967;SDS011;9221;42.646;23.380;2022-10-28T06:21:10;11.63;;;2.67;;
3967;SDS011;9221;42.646;23.380;2022-10-28T06:23:36;6.40;;;2.63;;
3967;SDS011;9221;42.646;23.380;2022-10-28T06:26:02;15.20;;;2.70;;
3967;SDS011;9221;42.646;23.380;2022-10-28T06:28:28;6.60;;;2.57;;
3967;SDS011;9221;42.646;23.380;2022-10-28T06:30:59;6.60;;;2.77;;
3967;SDS011;9221;42.646;23.380;2022-10-28T06:33:26;20.07;;;3.37;;
3967;SDS011;9221;42.646;23.380;2022-10-28T06:35:55;7.60;;;3.53;;
3967;SDS011;9221;42.646;23.380;2022-10-28T06:38:22;9.87;;;3.77;;
3967;SDS011;9221;42.646;23.380;2022-10-28T06:40:48;18.13;;;4.43;;
3967;SDS011;9221;42.646;23.380;2022-10-28T06:43:14;14.53;;;5.00;;
3967;SDS011;9221;42.646;23.380;2022-10-28T06:45:40;21.20;;;6.03;;
3967;SDS011;9221;42.646;23.380;2022-10-28T06:48:06;15.73;;;5.00;;
3967;SDS011;9221;42.646;23.380;2022-10-28T06:50:32;15.60;;;5.33;;
3967;SDS011;9221;42.646;23.380;2022-10-28T06:52:58;13.80;;;5.47;;
3967;SDS011;9221;42.646;23.380;2022-10-28T06:55:25;10.80;;;4.40;;
3967;SDS011;9221;42.646;23.380;2022-10-28T06:57:51;13.60;;;4.10;;
3967;SDS011;9221;42.646;23.380;2022-10-28T07:00:17;18.70;;;4.83;;
3967;SDS011;9221;42.646;23.380;2022-10-28T07:02:42;13.33;;;4.30;;
3967;SDS011;9221;42.646;23.380;2022-10-28T07:05:08;15.37;;;5.47;;
3967;SDS011;9221;42.646;23.380;2022-10-28T07:07:34;18.23;;;5.10;;
3967;SDS011;9221;42.646;23.380;2022-10-28T07:10:06;14.10;;;5.10;;
3967;SDS011;9221;42.646;23.380;2022-10-28T07:12:32;18.90;;;5.60;;
3967;SDS011;9221;42.646;23.380;2022-10-28T07:14:57;10.67;;;4.67;;
3967;SDS011;9221;42.646;23.380;2022-10-28T07:17:22;12.97;;;4.37;;
3967;SDS011;9221;42.646;23.380;2022-10-28T07:19:48;11.50;;;3.60;;
3967;SDS011;9221;42.646;23.380;2022-10-28T07:22:13;15.07;;;4.47;;
3967;SDS011;9221;42.646;23.380;2022-10-28T07:24:39;15.57;;;4.63;;
3967;SDS011;9221;42.646;23.380;2022-10-28T07:27:04;11.77;;;3.47;;
3967;SDS011;9221;42.646;23.380;2022-10-28T07:29:29;10.63;;;3.90;;
3967;SDS011;9221;42.646;23.380;2022-10-28T07:31:55;12.03;;;4.50;;
3967;SDS011;9221;42.646;23.380;2022-10-28T07:34:20;10.50;;;3.97;;
3967;SDS011;9221;42.646;23.380;2022-10-28T07:36:49;11.43;;;4.50;;
3967;SDS011;9221;42.646;23.380;2022-10-28T07:39:16;26.30;;;5.23;;
3967;SDS011;9221;42.646;23.380;2022-10-28T07:41:41;11.57;;;5.20;;
3967;SDS011;9221;42.646;23.380;2022-10-28T07:44:07;13.00;;;4.93;;
3967;SDS011;9221;42.646;23.380;2022-10-28T07:46:32;18.50;;;5.50;;
3967;SDS011;9221;42.646;23.380;2022-10-28T07:48:58;21.37;;;6.43;;
3967;SDS011;9221;42.646;23.380;2022-10-28T07:51:24;15.27;;;7.10;;
3967;SDS011;9221;42.646;23.380;2022-10-28T07:53:49;17.20;;;5.87;;
3967;SDS011;9221;42.646;23.380;2022-10-28T07:56:15;17.83;;;5.13;;
3967;SDS011;9221;42.646;23.380;2022-10-28T07:58:41;20.27;;;5.80;;
3967;SDS011;9221;42.646;23.380;2022-10-28T08:01:08;21.53;;;5.63;;
3967;SDS011;9221;42.646;23.380;2022-10-28T08:03:37;21.27;;;6.50;;
3967;SDS011;9221;42.646;23.380;2022-10-28T08:06:04;26.63;;;7.10;;
3967;SDS011;9221;42.646;23.380;2022-10-28T08:08:41;12.53;;;6.00;;
3967;SDS011;9221;42.646;23.380;2022-10-28T08:11:13;21.80;;;7.20;;
3967;SDS011;9221;42.646;23.380;2022-10-28T08:13:40;19.23;;;6.33;;
3967;SDS011;9221;42.646;23.380;2022-10-28T08:16:06;18.73;;;5.63;;
3967;SDS011;9221;42.646;23.380;2022-10-28T08:18:32;16.87;;;5.93;;
3967;SDS011;9221;42.646;23.380;2022-10-28T08:20:59;19.33;;;5.77;;
3967;SDS011;9221;42.646;23.380;2022-10-28T08:23:25;19.40;;;6.47;;
3967;SDS011;9221;42.646;23.380;2022-10-28T08:25:51;17.83;;;6.17;;
3967;SDS011;9221;42.646;23.380;2022-10-28T08:28:17;15.90;;;5.97;;
3967;SDS011;9221;42.646;23.380;2022-10-28T08:30:43;18.70;;;5.80;;
3967;SDS011;9221;42.646;23.380;2022-10-28T08:33:09;27.17;;;6.13;;
3967;SDS011;9221;42.646;23.380;2022-10-28T08:35:35;15.10;;;6.30;;
3967;SDS011;9221;42.646;23.380;2022-10-28T08:38:01;20.87;;;6.40;;
3967;SDS011;9221;42.646;23.380;2022-10-28T08:40:31;25.23;;;6.40;;
3967;SDS011;9221;42.646;23.380;2022-10-28T08:43:08;17.33;;;6.53;;
3967;SDS011;9221;42.646;23.380;2022-10-28T08:46:26;19.00;;;6.47;;
3967;SDS011;9221;42.646;23.380;2022-10-28T08:48:54;11.70;;;5.80;;
3967;SDS011;9221;42.646;23.380;2022-10-28T08:51:21;23.03;;;5.97;;
3967;SDS011;9221;42.646;23.380;2022-10-28T08:53:57;16.53;;;5.90;;
3967;SDS011;9221;42.646;23.380;2022-10-28T08:56:34;22.67;;;6.03;;
3967;SDS011;9221;42.646;23.380;2022-10-28T08:59:09;11.33;;;5.23;;
3967;SDS011;9221;42.646;23.380;2022-10-28T09:01:46;10.37;;;5.03;;
3967;SDS011;9221;42.646;23.380;2022-10-28T09:07:02;14.20;;;4.90;;
3967;SDS011;9221;42.646;23.380;2022-10-28T09:09:29;23.37;;;4.50;;
3967;SDS011;9221;42.646;23.380;2022-10-28T09:11:59;12.43;;;4.80;;
3967;SDS011;9221;42.646;23.380;2022-10-28T09:14:46;9.77;;;4.70;;
3967;SDS011;9221;42.646;23.380;2022-10-28T09:17:47;12.70;;;4.23;;
3967;SDS011;9221;42.646;23.380;2022-10-28T09:20:27;20.50;;;5.10;;
3967;SDS011;9221;42.646;23.380;2022-10-28T09:23:09;9.20;;;4.17;;
3967;SDS011;9221;42.646;23.380;2022-10-28T09:37:09;24.93;;;5.33;;
3967;SDS011;9221;42.646;23.380;2022-10-28T09:39:40;17.97;;;5.60;;
3967;SDS011;9221;42.646;23.380;2022-10-28T09:42:09;14.93;;;4.67;;
3967;SDS011;9221;42.646;23.380;2022-10-28T09:45:04;6.80;;;2.90;;
3967;SDS011;9221;42.646;23.380;2022-10-28T09:47:39;5.03;;;2.07;;
3967;SDS011;9221;42.646;23.380;2022-10-28T09:50:15;7.13;;;2.73;;
3967;SDS011;9221;42.646;23.380;2022-10-28T09:55:36;7.73;;;3.10;;
3967;SDS011;9221;42.646;23.380;2022-10-28T09:58:02;11.10;;;2.90;;
3967;SDS011;9221;42.646;23.380;2022-10-28T10:00:28;15.13;;;3.63;;
3967;SDS011;9221;42.646;23.380;2022-10-28T10:02:54;12.03;;;3.00;;
3967;SDS011;9221;42.646;23.380;2022-10-28T10:05:22;5.00;;;2.33;;
3967;SDS011;9221;42.646;23.380;2022-10-28T10:07:56;3.10;;;2.03;;
3967;SDS011;9221;42.646;23.380;2022-10-28T10:10:42;8.27;;;2.10;;
3967;SDS011;9221;42.646;23.380;2022-10-28T10:13:14;16.77;;;2.50;;
3967;SDS011;9221;42.646;23.380;2022-10-28T10:15:45;7.03;;;2.37;;
3967;SDS011;9221;42.646;23.380;2022-10-28T10:18:18;8.73;;;2.53;;
3967;SDS011;9221;42.646;23.380;2022-10-28T10:20:52;7.60;;;2.20;;
3967;SDS011;9221;42.646;23.380;2022-10-28T10:23:34;6.60;;;1.90;;
3967;SDS011;9221;42.646;23.380;2022-10-28T10:26:08;7.80;;;2.20;;
3967;SDS011;9221;42.646;23.380;2022-10-28T10:28:46;8.43;;;2.23;;
3967;SDS011;9221;42.646;23.380;2022-10-28T10:31:26;6.10;;;2.47;;
3967;SDS011;9221;42.646;23.380;2022-10-28T10:33:56;3.80;;;1.80;;
3967;SDS011;9221;42.646;23.380;2022-10-28T10:36:23;8.73;;;2.40;;
3967;SDS011;9221;42.646;23.380;2022-10-28T10:38:59;6.27;;;1.73;;
3967;SDS011;9221;42.646;23.380;2022-10-28T10:44:08;6.20;;;1.90;;
3967;SDS011;9221;42.646;23.380;2022-10-28T10:49:32;7.70;;;2.17;;
3967;SDS011;9221;42.646;23.380;2022-10-28T10:51:59;6.23;;;2.23;;
3967;SDS011;9221;42.646;23.380;2022-10-28T10:54:30;8.20;;;2.60;;
3967;SDS011;9221;42.646;23.380;2022-10-28T10:57:13;8.90;;;2.70;;
3967;SDS011;9221;42.646;23.380;2022-10-28T10:59:48;5.57;;;2.30;;
3967;SDS011;9221;42.646;23.380;2022-10-28T11:02:23;5.33;;;2.10;;
3967;SDS011;9221;42.646;23.380;2022-10-28T11:04:53;8.30;;;2.57;;
3967;SDS011;9221;42.646;23.380;2022-10-28T11:07:21;15.17;;;3.23;;
3967;SDS011;9221;42.646;23.380;2022-10-28T11:09:48;12.80;;;2.60;;
3967;SDS011;9221;42.646;23.380;2022-10-28T11:12:25;9.37;;;2.30;;
3967;SDS011;9221;42.646;23.380;2022-10-28T11:14:55;4.80;;;2.53;;
3967;SDS011;9221;42.646;23.380;2022-10-28T11:17:28;11.90;;;2.23;;
3967;SDS011;9221;42.646;23.380;2022-10-28T11:19:55;6.50;;;1.97;;
3967;SDS011;9221;42.646;23.380;2022-10-28T11:36:56;3.93;;;2.13;;
3967;SDS011;9221;42.646;23.380;2022-10-28T11:39:34;6.60;;;2.40;;
3967;SDS011;9221;42.646;23.380;2022-10-28T11:45:17;5.47;;;2.27;;
3967;SDS011;9221;42.646;23.380;2022-10-28T11:47:53;4.53;;;2.33;;
3967;SDS011;9221;42.646;23.380;2022-10-28T11:50:58;11.40;;;2.33;;
3967;SDS011;9221;42.646;23.380;2022-10-28T12:14:57;4.90;;;1.83;;
3967;SDS011;9221;42.646;23.380;2022-10-28T12:23:14;14.63;;;2.87;;
3967;SDS011;9221;42.646;23.380;2022-10-28T12:25:41;10.50;;;1.93;;
3967;SDS011;9221;42.646;23.380;2022-10-28T12:28:15;4.33;;;1.80;;
3967;SDS011;9221;42.646;23.380;2022-10-28T12:30:46;5.23;;;1.90;;
3967;SDS011;9221;42.646;23.380;2022-10-28T12:33:16;4.70;;;2.37;;
3967;SDS011;9221;42.646;23.380;2022-10-28T12:38:44;3.00;;;1.60;;
3967;SDS011;9221;42.646;23.380;2022-10-28T12:44:09;7.20;;;2.23;;
3967;SDS011;9221;42.646;23.380;2022-10-28T12:49:27;7.50;;;1.80;;
3967;SDS011;9221;42.646;23.380;2022-10-28T12:52:07;6.83;;;2.07;;
3967;SDS011;9221;42.646;23.380;2022-10-28T12:57:40;4.03;;;1.50;;
3967;SDS011;9221;42.646;23.380;2022-10-28T13:08:32;2.30;;;1.83;;
3967;SDS011;9221;42.646;23.380;2022-10-28T13:11:29;5.80;;;1.97;;
3967;SDS011;9221;42.646;23.380;2022-10-28T13:14:03;2.53;;;1.53;;
3967;SDS011;9221;42.646;23.380;2022-10-28T13:19:16;3.30;;;1.47;;
3967;SDS011;9221;42.646;23.380;2022-10-28T13:22:00;8.40;;;1.87;;
3967;SDS011;9221;42.646;23.380;2022-10-28T13:27:04;5.50;;;2.47;;
3967;SDS011;9221;42.646;23.380;2022-10-28T13:29:33;4.77;;;2.17;;
3967;SDS011;9221;42.646;23.380;2022-10-28T13:32:02;2.90;;;1.73;;
3967;SDS011;9221;42.646;23.380;2022-10-28T13:34:31;5.50;;;2.50;;
3967;SDS011;9221;42.646;23.380;2022-10-28T13:37:00;2.67;;;1.70;;
3967;SDS011;9221;42.646;23.380;2022-10-28T13:42:43;3.20;;;1.77;;
3967;SDS011;9221;42.646;23.380;2022-10-28T13:44:54;4.90;;;2.10;;
3967;SDS011;9221;42.646;23.380;2022-10-28T13:47:28;4.87;;;1.70;;
3967;SDS011;9221;42.646;23.380;2022-10-28T13:52:38;2.63;;;1.53;;
3967;SDS011;9221;42.646;23.380;2022-10-28T13:57:46;10.00;;;2.70;;
3967;SDS011;9221;42.646;23.380;2022-10-28T14:02:46;7.33;;;1.53;;
3967;SDS011;9221;42.646;23.380;2022-10-28T14:05:23;1.97;;;1.40;;
3967;SDS011;9221;42.646;23.380;2022-10-28T14:11:22;1.97;;;0.90;;
3967;SDS011;9221;42.646;23.380;2022-10-28T14:13:53;2.37;;;1.67;;
3967;SDS011;9221;42.646;23.380;2022-10-28T14:16:25;3.67;;;1.30;;
3967;SDS011;9221;42.646;23.380;2022-10-28T14:18:54;2.60;;;1.30;;
3967;SDS011;9221;42.646;23.380;2022-10-28T14:21:24;4.20;;;1.67;;
3967;SDS011;9221;42.646;23.380;2022-10-28T14:24:11;4.40;;;1.47;;
3967;SDS011;9221;42.646;23.380;2022-10-28T14:29:46;12.40;;;2.37;;
3967;SDS011;9221;42.646;23.380;2022-10-28T14:34:58;3.77;;;1.60;;
3967;SDS011;9221;42.646;23.380;2022-10-28T14:40:31;5.00;;;1.73;;
3967;SDS011;9221;42.646;23.380;2022-10-28T14:48:48;7.30;;;1.97;;
3967;SDS011;9221;42.646;23.380;2022-10-28T14:51:17;10.03;;;2.07;;
3967;SDS011;9221;42.646;23.380;2022-10-28T14:53:45;11.20;;;1.90;;
3967;SDS011;9221;42.646;23.380;2022-10-28T14:56:22;7.10;;;2.03;;
3967;SDS011;9221;42.646;23.380;2022-10-28T14:58:49;4.07;;;1.77;;
3967;SDS011;9221;42.646;23.380;2022-10-28T15:01:20;8.07;;;3.47;;
3967;SDS011;9221;42.646;23.380;2022-10-28T15:03:59;8.00;;;4.00;;
3967;SDS011;9221;42.646;23.380;2022-10-28T15:09:02;7.60;;;3.00;;
3967;SDS011;9221;42.646;23.380;2022-10-28T15:11:30;11.13;;;5.13;;
3967;SDS011;9221;42.646;23.380;2022-10-28T15:13:59;8.50;;;3.13;;
3967;SDS011;9221;42.646;23.380;2022-10-28T15:16:43;7.40;;;3.23;;
3967;SDS011;9221;42.646;23.380;2022-10-28T15:19:11;5.67;;;3.03;;
3967;SDS011;9221;42.646;23.380;2022-10-28T15:21:38;16.00;;;3.80;;
3967;SDS011;9221;42.646;23.380;2022-10-28T15:24:04;11.67;;;4.10;;
3967;SDS011;9221;42.646;23.380;2022-10-28T15:26:31;11.03;;;4.43;;
3967;SDS011;9221;42.646;23.380;2022-10-28T15:28:57;10.67;;;3.57;;
3967;SDS011;9221;42.646;23.380;2022-10-28T15:31:24;13.10;;;3.43;;
3967;SDS011;9221;42.646;23.380;2022-10-28T15:33:49;21.10;;;4.10;;
3967;SDS011;9221;42.646;23.380;2022-10-28T15:36:16;14.83;;;4.07;;
3967;SDS011;9221;42.646;23.380;2022-10-28T15:39:06;14.43;;;3.90;;
3967;SDS011;9221;42.646;23.380;2022-10-28T15:41:43;29.03;;;3.97;;
3967;SDS011;9221;42.646;23.380;2022-10-28T15:46:54;17.83;;;4.97;;
3967;SDS011;9221;42.646;23.380;2022-10-28T15:49:37;15.60;;;3.97;;
3967;SDS011;9221;42.646;23.380;2022-10-28T15:54:42;9.10;;;3.20;;
3967;SDS011;9221;42.646;23.380;2022-10-28T15:57:21;16.60;;;4.00;;
3967;SDS011;9221;42.646;23.380;2022-10-28T15:59:52;12.60;;;3.90;;
3967;SDS011;9221;42.646;23.380;2022-10-28T16:02:53;16.13;;;3.40;;
3967;SDS011;9221;42.646;23.380;2022-10-28T16:05:41;15.23;;;3.97;;
3967;SDS011;9221;42.646;23.380;2022-10-28T16:08:13;20.90;;;3.13;;
3967;SDS011;9221;42.646;23.380;2022-10-28T16:10:45;12.80;;;3.43;;
3967;SDS011;9221;42.646;23.380;2022-10-28T16:13:17;21.70;;;6.80;;
3967;SDS011;9221;42.646;23.380;2022-10-28T16:15:45;15.07;;;5.97;;
3967;SDS011;9221;42.646;23.380;2022-10-28T16:18:19;17.10;;;4.47;;
3967;SDS011;9221;42.646;23.380;2022-10-28T16:20:45;10.57;;;3.77;;
3967;SDS011;9221;42.646;23.380;2022-10-28T16:23:14;20.93;;;4.73;;
3967;SDS011;9221;42.646;23.380;2022-10-28T16:25:41;20.23;;;4.97;;
3967;SDS011;9221;42.646;23.380;2022-10-28T16:28:10;14.80;;;4.50;;
3967;SDS011;9221;42.646;23.380;2022-10-28T16:30:43;14.50;;;4.70;;
3967;SDS011;9221;42.646;23.380;2022-10-28T16:33:09;16.70;;;4.73;;
3967;SDS011;9221;42.646;23.380;2022-10-28T16:35:34;22.30;;;5.27;;
3967;SDS011;9221;42.646;23.380;2022-10-28T16:38:00;13.17;;;5.03;;
3967;SDS011;9221;42.646;23.380;2022-10-28T16:40:25;16.27;;;5.87;;
3967;SDS011;9221;42.646;23.380;2022-10-28T16:42:51;19.87;;;4.73;;
3967;SDS011;9221;42.646;23.380;2022-10-28T16:45:17;13.27;;;5.50;;
3967;SDS011;9221;42.646;23.380;2022-10-28T16:47:43;17.77;;;4.53;;
3967;SDS011;9221;42.646;23.380;2022-10-28T16:50:09;11.00;;;3.70;;
3967;SDS011;9221;42.646;23.380;2022-10-28T16:52:34;10.43;;;3.70;;
3967;SDS011;9221;42.646;23.380;2022-10-28T16:55:00;15.33;;;3.67;;
3967;SDS011;9221;42.646;23.380;2022-10-28T16:57:25;11.47;;;4.27;;
3967;SDS011;9221;42.646;23.380;2022-10-28T16:59:51;6.63;;;2.90;;
3967;SDS011;9221;42.646;23.380;2022-10-28T17:02:27;8.77;;;3.07;;
3967;SDS011;9221;42.646;23.380;2022-10-28T17:04:54;10.77;;;3.50;;
3967;SDS011;9221;42.646;23.380;2022-10-28T17:07:20;9.70;;;3.80;;
3967;SDS011;9221;42.646;23.380;2022-10-28T17:09:46;15.77;;;2.90;;
3967;SDS011;9221;42.646;23.380;2022-10-28T17:12:13;13.67;;;4.00;;
3967;SDS011;9221;42.646;23.380;2022-10-28T17:14:40;15.97;;;3.70;;
3967;SDS011;9221;42.646;23.380;2022-10-28T17:17:05;18.43;;;3.87;;
3967;SDS011;9221;42.646;23.380;2022-10-28T17:19:30;11.67;;;4.00;;
3967;SDS011;9221;42.646;23.380;2022-10-28T17:21:56;10.87;;;3.60;;
3967;SDS011;9221;42.646;23.380;2022-10-28T17:24:21;12.53;;;3.33;;
3967;SDS011;9221;42.646;23.380;2022-10-28T17:26:47;19.63;;;4.40;;
3967;SDS011;9221;42.646;23.380;2022-10-28T17:29:13;10.50;;;4.17;;
3967;SDS011;9221;42.646;23.380;2022-10-28T17:31:39;9.63;;;3.33;;
3967;SDS011;9221;42.646;23.380;2022-10-28T17:34:04;8.40;;;3.30;;
3967;SDS011;9221;42.646;23.380;2022-10-28T17:36:29;12.30;;;3.70;;
3967;SDS011;9221;42.646;23.380;2022-10-28T17:38:55;13.03;;;4.00;;
3967;SDS011;9221;42.646;23.380;2022-10-28T17:41:20;9.73;;;4.13;;
3967;SDS011;9221;42.646;23.380;2022-10-28T17:43:46;24.13;;;4.90;;
3967;SDS011;9221;42.646;23.380;2022-10-28T17:46:11;27.77;;;5.20;;
3967;SDS011;9221;42.646;23.380;2022-10-28T17:48:36;23.77;;;6.03;;
3967;SDS011;9221;42.646;23.380;2022-10-28T17:51:04;12.90;;;5.00;;
3967;SDS011;9221;42.646;23.380;2022-10-28T17:53:30;15.03;;;5.80;;
3967;SDS011;9221;42.646;23.380;2022-10-28T17:55:56;26.87;;;6.93;;
3967;SDS011;9221;42.646;23.380;2022-10-28T17:58:25;16.93;;;7.33;;
3967;SDS011;9221;42.646;23.380;2022-10-28T18:00:57;20.50;;;5.93;;
3967;SDS011;9221;42.646;23.380;2022-10-28T18:03:24;23.90;;;6.50;;